Terminal Aerodrome Forecast
Issued by NWS Tampa Bay Area, FL

Home | Current Version | Previous Version | Text Only | Print | Product List | Glossary Off
Versions: 1 2 3 4 5 6 7 8 9 10 11 12

957
FTUS42 KTBW 132326
TAFSRQ
TAF
KSRQ 132326Z 1400/1424 31007KT P6SM FEW250
     FM140300 23004KT P6SM FEW250
     FM141300 18006KT P6SM BKN050
     FM141600 22010KT P6SM BKN060=

USA.gov is the U.S. government's official web portal to all federal, state and local government web resources and services.